sensor_id;sensor_type;location;lat;lon;timestamp;P1;durP1;ratioP1;P2;durP2;ratioP2
16442;SDS011;8331;51.654;14.376;2022-08-19T00:01:59;14.10;;;13.00;;
16442;SDS011;8331;51.654;14.376;2022-08-19T00:04:27;14.23;;;13.13;;
16442;SDS011;8331;51.654;14.376;2022-08-19T00:06:58;14.13;;;13.00;;
16442;SDS011;8331;51.654;14.376;2022-08-19T00:09:25;13.70;;;12.70;;
16442;SDS011;8331;51.654;14.376;2022-08-19T00:11:53;15.27;;;13.93;;
16442;SDS011;8331;51.654;14.376;2022-08-19T00:14:21;14.47;;;13.43;;
16442;SDS011;8331;51.654;14.376;2022-08-19T00:16:49;14.30;;;13.30;;
16442;SDS011;8331;51.654;14.376;2022-08-19T00:19:17;13.53;;;12.53;;
16442;SDS011;8331;51.654;14.376;2022-08-19T00:21:44;14.43;;;13.20;;
16442;SDS011;8331;51.654;14.376;2022-08-19T00:24:12;14.07;;;12.97;;
16442;SDS011;8331;51.654;14.376;2022-08-19T00:26:39;15.10;;;13.77;;
16442;SDS011;8331;51.654;14.376;2022-08-19T00:29:08;13.87;;;12.67;;
16442;SDS011;8331;51.654;14.376;2022-08-19T00:31:36;14.17;;;13.17;;
16442;SDS011;8331;51.654;14.376;2022-08-19T00:34:03;14.97;;;13.53;;
16442;SDS011;8331;51.654;14.376;2022-08-19T00:36:30;14.00;;;13.00;;
16442;SDS011;8331;51.654;14.376;2022-08-19T00:38:59;15.07;;;13.77;;
16442;SDS011;8331;51.654;14.376;2022-08-19T00:41:27;14.00;;;12.80;;
16442;SDS011;8331;51.654;14.376;2022-08-19T00:46:23;14.80;;;13.60;;
16442;SDS011;8331;51.654;14.376;2022-08-19T00:48:50;14.47;;;13.37;;
16442;SDS011;8331;51.654;14.376;2022-08-19T00:51:16;15.23;;;13.63;;
16442;SDS011;8331;51.654;14.376;2022-08-19T00:53:43;14.30;;;13.20;;
16442;SDS011;8331;51.654;14.376;2022-08-19T00:56:10;13.67;;;12.53;;
16442;SDS011;8331;51.654;14.376;2022-08-19T00:58:37;14.27;;;13.17;;
16442;SDS011;8331;51.654;14.376;2022-08-19T01:01:04;14.83;;;13.53;;
16442;SDS011;8331;51.654;14.376;2022-08-19T01:03:30;14.27;;;13.07;;
16442;SDS011;8331;51.654;14.376;2022-08-19T01:06:17;13.53;;;12.63;;
16442;SDS011;8331;51.654;14.376;2022-08-19T01:08:46;14.83;;;13.53;;
16442;SDS011;8331;51.654;14.376;2022-08-19T01:11:15;14.73;;;13.63;;
16442;SDS011;8331;51.654;14.376;2022-08-19T01:13:42;14.37;;;13.37;;
16442;SDS011;8331;51.654;14.376;2022-08-19T01:16:15;14.50;;;13.30;;
16442;SDS011;8331;51.654;14.376;2022-08-19T01:18:43;12.50;;;11.70;;
16442;SDS011;8331;51.654;14.376;2022-08-19T01:21:18;15.40;;;12.90;;
16442;SDS011;8331;51.654;14.376;2022-08-19T01:23:50;14.07;;;12.97;;
16442;SDS011;8331;51.654;14.376;2022-08-19T01:26:19;13.87;;;12.97;;
16442;SDS011;8331;51.654;14.376;2022-08-19T01:28:50;14.00;;;12.97;;
16442;SDS011;8331;51.654;14.376;2022-08-19T01:31:20;14.60;;;13.50;;
16442;SDS011;8331;51.654;14.376;2022-08-19T01:33:54;14.03;;;12.83;;
16442;SDS011;8331;51.654;14.376;2022-08-19T01:36:41;14.07;;;13.07;;
16442;SDS011;8331;51.654;14.376;2022-08-19T01:39:13;13.53;;;12.63;;
16442;SDS011;8331;51.654;14.376;2022-08-19T01:41:42;13.90;;;12.73;;
16442;SDS011;8331;51.654;14.376;2022-08-19T01:44:09;14.03;;;12.83;;
16442;SDS011;8331;51.654;14.376;2022-08-19T01:46:45;13.67;;;12.50;;
16442;SDS011;8331;51.654;14.376;2022-08-19T01:49:14;15.10;;;13.90;;
16442;SDS011;8331;51.654;14.376;2022-08-19T01:51:41;14.10;;;13.10;;
16442;SDS011;8331;51.654;14.376;2022-08-19T01:54:09;14.70;;;13.60;;
16442;SDS011;8331;51.654;14.376;2022-08-19T01:56:36;13.77;;;12.63;;
16442;SDS011;8331;51.654;14.376;2022-08-19T01:59:04;14.43;;;13.33;;
16442;SDS011;8331;51.654;14.376;2022-08-19T02:01:35;13.63;;;12.73;;
16442;SDS011;8331;51.654;14.376;2022-08-19T02:04:02;15.13;;;13.87;;
16442;SDS011;8331;51.654;14.376;2022-08-19T02:06:29;15.30;;;14.10;;
16442;SDS011;8331;51.654;14.376;2022-08-19T02:08:56;14.23;;;13.20;;
16442;SDS011;8331;51.654;14.376;2022-08-19T02:11:27;15.90;;;14.23;;
16442;SDS011;8331;51.654;14.376;2022-08-19T02:13:58;13.70;;;12.60;;
16442;SDS011;8331;51.654;14.376;2022-08-19T02:16:25;14.20;;;12.90;;
16442;SDS011;8331;51.654;14.376;2022-08-19T02:18:52;14.43;;;13.33;;
16442;SDS011;8331;51.654;14.376;2022-08-19T02:21:19;14.53;;;13.53;;
16442;SDS011;8331;51.654;14.376;2022-08-19T02:23:47;15.00;;;13.57;;
16442;SDS011;8331;51.654;14.376;2022-08-19T02:26:14;14.33;;;13.37;;
16442;SDS011;8331;51.654;14.376;2022-08-19T02:28:41;14.77;;;13.67;;
16442;SDS011;8331;51.654;14.376;2022-08-19T02:31:12;15.17;;;13.90;;
16442;SDS011;8331;51.654;14.376;2022-08-19T02:33:41;14.93;;;13.60;;
16442;SDS011;8331;51.654;14.376;2022-08-19T02:36:08;14.93;;;13.67;;
16442;SDS011;8331;51.654;14.376;2022-08-19T02:38:36;15.10;;;14.00;;
16442;SDS011;8331;51.654;14.376;2022-08-19T02:41:05;15.50;;;14.40;;
16442;SDS011;8331;51.654;14.376;2022-08-19T02:43:36;15.40;;;14.20;;
16442;SDS011;8331;51.654;14.376;2022-08-19T02:46:14;14.60;;;13.50;;
16442;SDS011;8331;51.654;14.376;2022-08-19T02:48:41;16.50;;;15.20;;
16442;SDS011;8331;51.654;14.376;2022-08-19T02:51:07;16.67;;;15.47;;
16442;SDS011;8331;51.654;14.376;2022-08-19T02:53:34;16.33;;;14.93;;
16442;SDS011;8331;51.654;14.376;2022-08-19T02:56:01;17.73;;;16.33;;
16442;SDS011;8331;51.654;14.376;2022-08-19T02:58:28;16.63;;;15.30;;
16442;SDS011;8331;51.654;14.376;2022-08-19T03:00:55;17.37;;;15.93;;
16442;SDS011;8331;51.654;14.376;2022-08-19T03:03:23;16.67;;;15.20;;
16442;SDS011;8331;51.654;14.376;2022-08-19T03:05:50;16.47;;;15.17;;
16442;SDS011;8331;51.654;14.376;2022-08-19T03:08:23;16.57;;;15.23;;
16442;SDS011;8331;51.654;14.376;2022-08-19T03:10:50;17.77;;;16.27;;
16442;SDS011;8331;51.654;14.376;2022-08-19T03:13:19;18.33;;;16.57;;
16442;SDS011;8331;51.654;14.376;2022-08-19T03:15:46;16.70;;;15.40;;
16442;SDS011;8331;51.654;14.376;2022-08-19T03:18:13;17.83;;;16.33;;
16442;SDS011;8331;51.654;14.376;2022-08-19T03:20:43;17.20;;;15.63;;
16442;SDS011;8331;51.654;14.376;2022-08-19T03:23:22;17.27;;;15.97;;
16442;SDS011;8331;51.654;14.376;2022-08-19T03:25:49;16.20;;;15.00;;
16442;SDS011;8331;51.654;14.376;2022-08-19T03:28:37;17.17;;;15.57;;
16442;SDS011;8331;51.654;14.376;2022-08-19T03:31:04;15.83;;;14.53;;
16442;SDS011;8331;51.654;14.376;2022-08-19T03:33:57;16.37;;;15.07;;
16442;SDS011;8331;51.654;14.376;2022-08-19T03:36:25;15.13;;;13.90;;
16442;SDS011;8331;51.654;14.376;2022-08-19T03:38:56;17.43;;;16.03;;
16442;SDS011;8331;51.654;14.376;2022-08-19T03:41:26;16.40;;;15.07;;
16442;SDS011;8331;51.654;14.376;2022-08-19T03:44:10;15.90;;;14.70;;
16442;SDS011;8331;51.654;14.376;2022-08-19T03:46:44;16.30;;;15.00;;
16442;SDS011;8331;51.654;14.376;2022-08-19T03:49:11;16.10;;;14.70;;
16442;SDS011;8331;51.654;14.376;2022-08-19T03:51:40;15.63;;;14.43;;
16442;SDS011;8331;51.654;14.376;2022-08-19T03:54:08;15.70;;;14.60;;
16442;SDS011;8331;51.654;14.376;2022-08-19T03:56:37;16.53;;;15.33;;
16442;SDS011;8331;51.654;14.376;2022-08-19T03:59:07;16.70;;;15.33;;
16442;SDS011;8331;51.654;14.376;2022-08-19T04:01:36;16.10;;;14.80;;
16442;SDS011;8331;51.654;14.376;2022-08-19T04:04:03;16.00;;;14.70;;
16442;SDS011;8331;51.654;14.376;2022-08-19T04:06:31;15.77;;;14.47;;
16442;SDS011;8331;51.654;14.376;2022-08-19T04:08:59;16.20;;;14.90;;
16442;SDS011;8331;51.654;14.376;2022-08-19T04:11:28;15.70;;;14.40;;
16442;SDS011;8331;51.654;14.376;2022-08-19T04:14:09;16.03;;;14.77;;
16442;SDS011;8331;51.654;14.376;2022-08-19T04:16:40;15.80;;;14.63;;
16442;SDS011;8331;51.654;14.376;2022-08-19T04:19:09;16.20;;;14.80;;
16442;SDS011;8331;51.654;14.376;2022-08-19T04:21:35;15.97;;;14.67;;
16442;SDS011;8331;51.654;14.376;2022-08-19T04:24:03;16.47;;;15.10;;
16442;SDS011;8331;51.654;14.376;2022-08-19T04:26:31;16.13;;;14.93;;
16442;SDS011;8331;51.654;14.376;2022-08-19T04:28:59;17.13;;;15.60;;
16442;SDS011;8331;51.654;14.376;2022-08-19T04:31:29;15.40;;;14.30;;
16442;SDS011;8331;51.654;14.376;2022-08-19T04:33:58;16.03;;;14.80;;
16442;SDS011;8331;51.654;14.376;2022-08-19T04:36:26;15.67;;;14.57;;
16442;SDS011;8331;51.654;14.376;2022-08-19T04:38:55;16.03;;;14.83;;
16442;SDS011;8331;51.654;14.376;2022-08-19T04:41:24;15.60;;;14.40;;
16442;SDS011;8331;51.654;14.376;2022-08-19T04:44:10;16.00;;;14.80;;
16442;SDS011;8331;51.654;14.376;2022-08-19T04:46:37;16.67;;;15.37;;
16442;SDS011;8331;51.654;14.376;2022-08-19T04:49:16;17.53;;;15.90;;
16442;SDS011;8331;51.654;14.376;2022-08-19T04:51:45;17.00;;;15.70;;
16442;SDS011;8331;51.654;14.376;2022-08-19T04:54:14;17.10;;;15.77;;
16442;SDS011;8331;51.654;14.376;2022-08-19T04:57:02;16.83;;;15.33;;
16442;SDS011;8331;51.654;14.376;2022-08-19T04:59:29;16.70;;;15.50;;
16442;SDS011;8331;51.654;14.376;2022-08-19T05:01:56;16.47;;;15.27;;
16442;SDS011;8331;51.654;14.376;2022-08-19T05:04:22;15.90;;;14.70;;
16442;SDS011;8331;51.654;14.376;2022-08-19T05:06:49;17.00;;;15.50;;
16442;SDS011;8331;51.654;14.376;2022-08-19T05:09:22;17.00;;;15.80;;
16442;SDS011;8331;51.654;14.376;2022-08-19T05:11:48;14.83;;;13.77;;
16442;SDS011;8331;51.654;14.376;2022-08-19T05:14:15;17.87;;;16.47;;
16442;SDS011;8331;51.654;14.376;2022-08-19T05:16:42;17.90;;;16.43;;
16442;SDS011;8331;51.654;14.376;2022-08-19T05:19:09;16.57;;;15.23;;
16442;SDS011;8331;51.654;14.376;2022-08-19T05:22:14;16.73;;;15.47;;
16442;SDS011;8331;51.654;14.376;2022-08-19T05:24:59;17.33;;;15.73;;
16442;SDS011;8331;51.654;14.376;2022-08-19T05:27:38;17.00;;;15.53;;
16442;SDS011;8331;51.654;14.376;2022-08-19T05:30:06;17.10;;;15.70;;
16442;SDS011;8331;51.654;14.376;2022-08-19T05:32:33;15.97;;;14.57;;
16442;SDS011;8331;51.654;14.376;2022-08-19T05:35:00;15.20;;;13.97;;
16442;SDS011;8331;51.654;14.376;2022-08-19T05:37:27;14.33;;;13.33;;
16442;SDS011;8331;51.654;14.376;2022-08-19T05:39:54;15.97;;;14.63;;
16442;SDS011;8331;51.654;14.376;2022-08-19T05:42:21;15.53;;;14.23;;
16442;SDS011;8331;51.654;14.376;2022-08-19T05:44:50;15.90;;;14.73;;
16442;SDS011;8331;51.654;14.376;2022-08-19T05:47:17;17.60;;;16.10;;
16442;SDS011;8331;51.654;14.376;2022-08-19T05:49:46;18.17;;;16.40;;
16442;SDS011;8331;51.654;14.376;2022-08-19T05:52:13;17.63;;;16.20;;
16442;SDS011;8331;51.654;14.376;2022-08-19T05:54:44;16.53;;;15.33;;
16442;SDS011;8331;51.654;14.376;2022-08-19T05:57:17;15.90;;;14.50;;
16442;SDS011;8331;51.654;14.376;2022-08-19T05:59:45;19.70;;;17.93;;
16442;SDS011;8331;51.654;14.376;2022-08-19T06:02:14;19.47;;;17.83;;
16442;SDS011;8331;51.654;14.376;2022-08-19T06:04:41;19.33;;;17.80;;
16442;SDS011;8331;51.654;14.376;2022-08-19T06:07:10;20.77;;;19.07;;
16442;SDS011;8331;51.654;14.376;2022-08-19T06:09:38;20.90;;;18.93;;
16442;SDS011;8331;51.654;14.376;2022-08-19T06:12:05;19.87;;;18.23;;
16442;SDS011;8331;51.654;14.376;2022-08-19T06:14:33;18.73;;;17.13;;
16442;SDS011;8331;51.654;14.376;2022-08-19T06:17:07;19.30;;;17.90;;
16442;SDS011;8331;51.654;14.376;2022-08-19T06:19:34;19.90;;;18.30;;
16442;SDS011;8331;51.654;14.376;2022-08-19T06:22:06;19.80;;;18.30;;
16442;SDS011;8331;51.654;14.376;2022-08-19T06:24:34;20.43;;;18.83;;
16442;SDS011;8331;51.654;14.376;2022-08-19T06:27:01;22.00;;;20.30;;
16442;SDS011;8331;51.654;14.376;2022-08-19T06:29:29;21.27;;;19.27;;
16442;SDS011;8331;51.654;14.376;2022-08-19T06:31:57;21.20;;;19.57;;
16442;SDS011;8331;51.654;14.376;2022-08-19T06:34:25;19.50;;;17.90;;
16442;SDS011;8331;51.654;14.376;2022-08-19T06:36:54;19.77;;;18.17;;
16442;SDS011;8331;51.654;14.376;2022-08-19T06:39:23;19.67;;;18.03;;
16442;SDS011;8331;51.654;14.376;2022-08-19T06:41:53;20.43;;;18.93;;
16442;SDS011;8331;51.654;14.376;2022-08-19T06:44:28;20.77;;;19.07;;
16442;SDS011;8331;51.654;14.376;2022-08-19T06:46:57;19.53;;;17.93;;
16442;SDS011;8331;51.654;14.376;2022-08-19T06:49:24;19.50;;;17.90;;
16442;SDS011;8331;51.654;14.376;2022-08-19T06:51:51;21.47;;;19.63;;
16442;SDS011;8331;51.654;14.376;2022-08-19T06:54:18;20.50;;;18.70;;
16442;SDS011;8331;51.654;14.376;2022-08-19T06:56:45;20.47;;;18.87;;
16442;SDS011;8331;51.654;14.376;2022-08-19T06:59:13;21.40;;;19.30;;
16442;SDS011;8331;51.654;14.376;2022-08-19T07:01:46;22.50;;;20.70;;
16442;SDS011;8331;51.654;14.376;2022-08-19T07:04:18;20.50;;;18.83;;
16442;SDS011;8331;51.654;14.376;2022-08-19T07:06:47;21.07;;;19.40;;
16442;SDS011;8331;51.654;14.376;2022-08-19T07:09:20;20.70;;;19.00;;
16442;SDS011;8331;51.654;14.376;2022-08-19T07:11:48;22.13;;;20.03;;
16442;SDS011;8331;51.654;14.376;2022-08-19T07:14:19;21.70;;;19.90;;
16442;SDS011;8331;51.654;14.376;2022-08-19T07:16:51;21.90;;;20.20;;
16442;SDS011;8331;51.654;14.376;2022-08-19T07:19:21;24.20;;;22.27;;
16442;SDS011;8331;51.654;14.376;2022-08-19T07:21:50;24.50;;;22.30;;
16442;SDS011;8331;51.654;14.376;2022-08-19T07:24:21;24.73;;;22.27;;
16442;SDS011;8331;51.654;14.376;2022-08-19T07:26:50;24.03;;;21.83;;
16442;SDS011;8331;51.654;14.376;2022-08-19T07:29:19;22.10;;;20.23;;
16442;SDS011;8331;51.654;14.376;2022-08-19T07:31:51;21.83;;;19.97;;
16442;SDS011;8331;51.654;14.376;2022-08-19T07:34:19;23.20;;;20.93;;
16442;SDS011;8331;51.654;14.376;2022-08-19T07:36:46;21.23;;;19.10;;
16442;SDS011;8331;51.654;14.376;2022-08-19T07:39:18;21.67;;;19.97;;
16442;SDS011;8331;51.654;14.376;2022-08-19T07:41:46;20.43;;;18.67;;
16442;SDS011;8331;51.654;14.376;2022-08-19T07:44:14;21.30;;;19.53;;
16442;SDS011;8331;51.654;14.376;2022-08-19T07:46:43;19.07;;;17.57;;
16442;SDS011;8331;51.654;14.376;2022-08-19T07:49:15;20.53;;;18.70;;
16442;SDS011;8331;51.654;14.376;2022-08-19T07:51:58;20.37;;;18.57;;
16442;SDS011;8331;51.654;14.376;2022-08-19T07:54:28;21.27;;;19.30;;
16442;SDS011;8331;51.654;14.376;2022-08-19T07:56:57;21.53;;;19.53;;
16442;SDS011;8331;51.654;14.376;2022-08-19T07:59:24;20.13;;;18.33;;
16442;SDS011;8331;51.654;14.376;2022-08-19T08:01:51;20.53;;;18.93;;
16442;SDS011;8331;51.654;14.376;2022-08-19T08:04:19;21.63;;;19.70;;
16442;SDS011;8331;51.654;14.376;2022-08-19T08:07:04;20.57;;;18.87;;
16442;SDS011;8331;51.654;14.376;2022-08-19T08:09:57;22.57;;;20.67;;
16442;SDS011;8331;51.654;14.376;2022-08-19T08:12:29;23.17;;;20.87;;
16442;SDS011;8331;51.654;14.376;2022-08-19T08:15:05;21.80;;;19.87;;
16442;SDS011;8331;51.654;14.376;2022-08-19T08:17:38;21.97;;;19.77;;
16442;SDS011;8331;51.654;14.376;2022-08-19T08:20:17;21.13;;;19.33;;
16442;SDS011;8331;51.654;14.376;2022-08-19T08:22:46;20.33;;;18.53;;
16442;SDS011;8331;51.654;14.376;2022-08-19T08:25:31;21.00;;;19.10;;
16442;SDS011;8331;51.654;14.376;2022-08-19T08:28:00;21.17;;;19.17;;
16442;SDS011;8331;51.654;14.376;2022-08-19T08:30:28;19.90;;;18.30;;
16442;SDS011;8331;51.654;14.376;2022-08-19T08:32:58;19.23;;;17.73;;
16442;SDS011;8331;51.654;14.376;2022-08-19T08:35:25;18.63;;;17.13;;
16442;SDS011;8331;51.654;14.376;2022-08-19T08:37:53;19.53;;;17.93;;
16442;SDS011;8331;51.654;14.376;2022-08-19T08:45:45;17.90;;;16.40;;
16442;SDS011;8331;51.654;14.376;2022-08-19T08:51:03;15.80;;;14.50;;
16442;SDS011;8331;51.654;14.376;2022-08-19T08:53:34;17.43;;;15.93;;
16442;SDS011;8331;51.654;14.376;2022-08-19T08:56:07;17.43;;;16.07;;
16442;SDS011;8331;51.654;14.376;2022-08-19T08:58:58;16.43;;;15.03;;
16442;SDS011;8331;51.654;14.376;2022-08-19T09:01:30;16.03;;;14.73;;
16442;SDS011;8331;51.654;14.376;2022-08-19T09:03:56;16.23;;;14.93;;
16442;SDS011;8331;51.654;14.376;2022-08-19T09:06:32;17.73;;;16.30;;
16442;SDS011;8331;51.654;14.376;2022-08-19T09:09:17;16.77;;;15.40;;
16442;SDS011;8331;51.654;14.376;2022-08-19T09:12:05;17.10;;;15.80;;
16442;SDS011;8331;51.654;14.376;2022-08-19T09:14:58;17.97;;;16.47;;
16442;SDS011;8331;51.654;14.376;2022-08-19T09:17:28;17.50;;;15.97;;
16442;SDS011;8331;51.654;14.376;2022-08-19T09:20:08;17.47;;;16.13;;
16442;SDS011;8331;51.654;14.376;2022-08-19T09:22:42;17.70;;;16.13;;
16442;SDS011;8331;51.654;14.376;2022-08-19T09:25:14;19.73;;;18.07;;
16442;SDS011;8331;51.654;14.376;2022-08-19T09:27:53;18.30;;;16.80;;
16442;SDS011;8331;51.654;14.376;2022-08-19T09:30:33;18.80;;;17.00;;
16442;SDS011;8331;51.654;14.376;2022-08-19T09:33:01;19.77;;;18.17;;
16442;SDS011;8331;51.654;14.376;2022-08-19T09:35:29;20.20;;;18.10;;
16442;SDS011;8331;51.654;14.376;2022-08-19T09:37:57;18.40;;;16.73;;
16442;SDS011;8331;51.654;14.376;2022-08-19T09:40:28;17.73;;;16.20;;
16442;SDS011;8331;51.654;14.376;2022-08-19T09:43:00;18.97;;;17.20;;
16442;SDS011;8331;51.654;14.376;2022-08-19T09:45:36;18.43;;;16.90;;
16442;SDS011;8331;51.654;14.376;2022-08-19T09:48:03;19.40;;;17.80;;
16442;SDS011;8331;51.654;14.376;2022-08-19T09:50:32;19.87;;;18.17;;
16442;SDS011;8331;51.654;14.376;2022-08-19T09:53:17;17.63;;;16.23;;
16442;SDS011;8331;51.654;14.376;2022-08-19T09:55:43;17.73;;;16.30;;
16442;SDS011;8331;51.654;14.376;2022-08-19T09:58:10;18.07;;;16.57;;
16442;SDS011;8331;51.654;14.376;2022-08-19T10:00:37;17.60;;;16.20;;
16442;SDS011;8331;51.654;14.376;2022-08-19T10:03:04;17.57;;;16.17;;
16442;SDS011;8331;51.654;14.376;2022-08-19T10:05:32;17.77;;;16.20;;
16442;SDS011;8331;51.654;14.376;2022-08-19T10:08:21;17.43;;;16.10;;
16442;SDS011;8331;51.654;14.376;2022-08-19T10:10:52;18.17;;;16.67;;
16442;SDS011;8331;51.654;14.376;2022-08-19T10:13:22;15.93;;;14.80;;
16442;SDS011;8331;51.654;14.376;2022-08-19T10:15:55;18.87;;;17.33;;
16442;SDS011;8331;51.654;14.376;2022-08-19T10:18:24;18.87;;;17.27;;
16442;SDS011;8331;51.654;14.376;2022-08-19T10:20:51;17.37;;;15.97;;
16442;SDS011;8331;51.654;14.376;2022-08-19T10:23:20;16.57;;;15.10;;
16442;SDS011;8331;51.654;14.376;2022-08-19T10:25:47;16.43;;;15.00;;
16442;SDS011;8331;51.654;14.376;2022-08-19T10:28:15;15.10;;;13.90;;
16442;SDS011;8331;51.654;14.376;2022-08-19T10:30:45;14.33;;;13.30;;
16442;SDS011;8331;51.654;14.376;2022-08-19T10:33:12;15.60;;;14.43;;
16442;SDS011;8331;51.654;14.376;2022-08-19T10:35:40;14.60;;;13.47;;
16442;SDS011;8331;51.654;14.376;2022-08-19T10:38:22;14.57;;;13.57;;
16442;SDS011;8331;51.654;14.376;2022-08-19T10:40:57;15.13;;;14.03;;
16442;SDS011;8331;51.654;14.376;2022-08-19T10:43:24;14.03;;;13.03;;
16442;SDS011;8331;51.654;14.376;2022-08-19T10:45:52;14.37;;;13.30;;
16442;SDS011;8331;51.654;14.376;2022-08-19T10:48:21;15.80;;;13.70;;
16442;SDS011;8331;51.654;14.376;2022-08-19T10:50:48;17.73;;;13.47;;
16442;SDS011;8331;51.654;14.376;2022-08-19T10:53:33;13.83;;;12.83;;
16442;SDS011;8331;51.654;14.376;2022-08-19T10:56:01;14.07;;;13.07;;
16442;SDS011;8331;51.654;14.376;2022-08-19T10:58:46;14.33;;;13.13;;
16442;SDS011;8331;51.654;14.376;2022-08-19T11:01:12;14.70;;;13.47;;
16442;SDS011;8331;51.654;14.376;2022-08-19T11:03:39;14.40;;;13.30;;
16442;SDS011;8331;51.654;14.376;2022-08-19T11:06:07;14.60;;;13.23;;
16442;SDS011;8331;51.654;14.376;2022-08-19T11:08:35;15.80;;;14.43;;
16442;SDS011;8331;51.654;14.376;2022-08-19T11:11:05;16.20;;;14.80;;
16442;SDS011;8331;51.654;14.376;2022-08-19T11:13:34;14.63;;;13.50;;
16442;SDS011;8331;51.654;14.376;2022-08-19T11:16:11;15.60;;;14.60;;
16442;SDS011;8331;51.654;14.376;2022-08-19T11:18:44;15.63;;;14.47;;
16442;SDS011;8331;51.654;14.376;2022-08-19T11:21:14;15.30;;;14.20;;
16442;SDS011;8331;51.654;14.376;2022-08-19T11:23:43;16.90;;;15.50;;
16442;SDS011;8331;51.654;14.376;2022-08-19T11:26:10;15.80;;;14.63;;
16442;SDS011;8331;51.654;14.376;2022-08-19T11:28:37;18.10;;;16.37;;
16442;SDS011;8331;51.654;14.376;2022-08-19T11:31:08;15.97;;;14.77;;
16442;SDS011;8331;51.654;14.376;2022-08-19T11:33:36;17.57;;;16.07;;
16442;SDS011;8331;51.654;14.376;2022-08-19T11:36:03;15.67;;;14.60;;
16442;SDS011;8331;51.654;14.376;2022-08-19T11:38:30;18.60;;;16.93;;
16442;SDS011;8331;51.654;14.376;2022-08-19T11:40:57;17.47;;;16.27;;
16442;SDS011;8331;51.654;14.376;2022-08-19T11:43:25;18.43;;;17.00;;
16442;SDS011;8331;51.654;14.376;2022-08-19T11:45:53;17.90;;;16.53;;
16442;SDS011;8331;51.654;14.376;2022-08-19T11:48:20;18.03;;;16.70;;
16442;SDS011;8331;51.654;14.376;2022-08-19T11:50:48;16.83;;;15.47;;
16442;SDS011;8331;51.654;14.376;2022-08-19T11:53:19;17.00;;;15.77;;
16442;SDS011;8331;51.654;14.376;2022-08-19T11:55:46;18.07;;;16.67;;
16442;SDS011;8331;51.654;14.376;2022-08-19T11:58:14;17.33;;;15.97;;
16442;SDS011;8331;51.654;14.376;2022-08-19T12:00:44;18.03;;;16.53;;
16442;SDS011;8331;51.654;14.376;2022-08-19T12:03:12;18.50;;;17.03;;
16442;SDS011;8331;51.654;14.376;2022-08-19T12:05:40;18.60;;;17.00;;
16442;SDS011;8331;51.654;14.376;2022-08-19T12:08:07;17.03;;;15.70;;
16442;SDS011;8331;51.654;14.376;2022-08-19T12:10:34;17.83;;;16.57;;
16442;SDS011;8331;51.654;14.376;2022-08-19T12:13:02;19.47;;;17.90;;
16442;SDS011;8331;51.654;14.376;2022-08-19T12:15:28;18.67;;;17.27;;
16442;SDS011;8331;51.654;14.376;2022-08-19T12:18:02;18.80;;;17.30;;
16442;SDS011;8331;51.654;14.376;2022-08-19T12:20:30;18.77;;;17.27;;
16442;SDS011;8331;51.654;14.376;2022-08-19T12:23:00;18.13;;;16.87;;
16442;SDS011;8331;51.654;14.376;2022-08-19T12:25:27;17.30;;;15.90;;
16442;SDS011;8331;51.654;14.376;2022-08-19T12:27:53;16.43;;;15.13;;
16442;SDS011;8331;51.654;14.376;2022-08-19T12:30:23;15.33;;;14.33;;
16442;SDS011;8331;51.654;14.376;2022-08-19T12:32:50;16.87;;;15.13;;
16442;SDS011;8331;51.654;14.376;2022-08-19T12:35:17;15.00;;;13.87;;
16442;SDS011;8331;51.654;14.376;2022-08-19T12:37:47;15.30;;;14.07;;
16442;SDS011;8331;51.654;14.376;2022-08-19T12:40:22;16.43;;;14.83;;
16442;SDS011;8331;51.654;14.376;2022-08-19T12:42:51;16.07;;;14.73;;
16442;SDS011;8331;51.654;14.376;2022-08-19T12:45:18;14.80;;;13.80;;
16442;SDS011;8331;51.654;14.376;2022-08-19T12:47:46;15.60;;;14.27;;
16442;SDS011;8331;51.654;14.376;2022-08-19T12:50:14;15.57;;;14.43;;
16442;SDS011;8331;51.654;14.376;2022-08-19T12:52:41;16.90;;;15.50;;
16442;SDS011;8331;51.654;14.376;2022-08-19T12:55:08;16.20;;;15.07;;
16442;SDS011;8331;51.654;14.376;2022-08-19T12:57:35;17.30;;;15.97;;
16442;SDS011;8331;51.654;14.376;2022-08-19T13:00:06;17.63;;;16.17;;
16442;SDS011;8331;51.654;14.376;2022-08-19T13:02:40;18.53;;;17.10;;
16442;SDS011;8331;51.654;14.376;2022-08-19T13:05:09;17.57;;;16.27;;
16442;SDS011;8331;51.654;14.376;2022-08-19T13:07:37;19.47;;;17.97;;
16442;SDS011;8331;51.654;14.376;2022-08-19T13:10:06;18.83;;;17.53;;
16442;SDS011;8331;51.654;14.376;2022-08-19T13:12:34;19.17;;;17.67;;
16442;SDS011;8331;51.654;14.376;2022-08-19T13:15:01;19.60;;;18.00;;
16442;SDS011;8331;51.654;14.376;2022-08-19T13:17:36;19.10;;;17.67;;
16442;SDS011;8331;51.654;14.376;2022-08-19T13:20:03;21.83;;;18.93;;
16442;SDS011;8331;51.654;14.376;2022-08-19T13:22:31;20.87;;;19.27;;
16442;SDS011;8331;51.654;14.376;2022-08-19T13:24:58;23.33;;;21.33;;
16442;SDS011;8331;51.654;14.376;2022-08-19T13:27:24;23.53;;;21.63;;
16442;SDS011;8331;51.654;14.376;2022-08-19T13:29:51;23.17;;;21.00;;
16442;SDS011;8331;51.654;14.376;2022-08-19T13:32:36;23.27;;;21.13;;
16442;SDS011;8331;51.654;14.376;2022-08-19T13:35:21;24.13;;;21.97;;
16442;SDS011;8331;51.654;14.376;2022-08-19T13:37:48;23.33;;;21.33;;
16442;SDS011;8331;51.654;14.376;2022-08-19T13:40:15;24.40;;;21.87;;
16442;SDS011;8331;51.654;14.376;2022-08-19T13:42:46;22.90;;;21.00;;
16442;SDS011;8331;51.654;14.376;2022-08-19T13:45:15;24.30;;;22.13;;
16442;SDS011;8331;51.654;14.376;2022-08-19T13:47:45;23.90;;;21.73;;
16442;SDS011;8331;51.654;14.376;2022-08-19T13:50:15;24.23;;;22.00;;
16442;SDS011;8331;51.654;14.376;2022-08-19T13:52:44;25.50;;;23.30;;
16442;SDS011;8331;51.654;14.376;2022-08-19T13:55:11;25.00;;;22.63;;
16442;SDS011;8331;51.654;14.376;2022-08-19T13:57:38;24.57;;;22.47;;
16442;SDS011;8331;51.654;14.376;2022-08-19T14:00:10;24.33;;;21.93;;
16442;SDS011;8331;51.654;14.376;2022-08-19T14:02:44;23.77;;;21.23;;
16442;SDS011;8331;51.654;14.376;2022-08-19T14:05:12;23.10;;;21.03;;
16442;SDS011;8331;51.654;14.376;2022-08-19T14:07:41;22.17;;;20.23;;
16442;SDS011;8331;51.654;14.376;2022-08-19T14:10:09;20.47;;;18.87;;
16442;SDS011;8331;51.654;14.376;2022-08-19T14:12:37;22.67;;;20.30;;
16442;SDS011;8331;51.654;14.376;2022-08-19T14:15:05;20.77;;;18.97;;
16442;SDS011;8331;51.654;14.376;2022-08-19T14:17:32;19.47;;;17.73;;
16442;SDS011;8331;51.654;14.376;2022-08-19T14:20:02;19.60;;;17.90;;
16442;SDS011;8331;51.654;14.376;2022-08-19T14:22:37;18.30;;;16.90;;
16442;SDS011;8331;51.654;14.376;2022-08-19T14:25:06;20.60;;;18.70;;
16442;SDS011;8331;51.654;14.376;2022-08-19T14:27:38;18.67;;;16.97;;
16442;SDS011;8331;51.654;14.376;2022-08-19T14:30:06;18.63;;;17.00;;
16442;SDS011;8331;51.654;14.376;2022-08-19T14:32:35;19.13;;;17.30;;
16442;SDS011;8331;51.654;14.376;2022-08-19T14:35:02;19.47;;;17.77;;
16442;SDS011;8331;51.654;14.376;2022-08-19T14:37:29;18.50;;;16.93;;
16442;SDS011;8331;51.654;14.376;2022-08-19T14:39:56;19.20;;;17.40;;
16442;SDS011;8331;51.654;14.376;2022-08-19T14:42:23;18.93;;;17.40;;
16442;SDS011;8331;51.654;14.376;2022-08-19T14:44:49;21.23;;;19.17;;
16442;SDS011;8331;51.654;14.376;2022-08-19T14:47:16;21.97;;;19.97;;
16442;SDS011;8331;51.654;14.376;2022-08-19T14:49:44;22.23;;;19.87;;